createdAt,value
2023-05-24T00:00:50.413Z,506.00
2023-05-24T00:01:50.388Z,506.00
2023-05-24T00:02:50.448Z,505.00
2023-05-24T00:03:50.474Z,508.00
2023-05-24T00:04:50.425Z,506.00
2023-05-24T00:05:50.431Z,506.00
2023-05-24T00:06:50.348Z,509.00
2023-05-24T00:07:50.335Z,509.00
2023-05-24T00:08:50.341Z,510.00
2023-05-24T00:09:50.333Z,504.00
2023-05-24T00:10:50.322Z,505.00
2023-05-24T00:11:50.326Z,505.00
2023-05-24T00:12:50.310Z,507.00
2023-05-24T00:13:50.305Z,506.00
2023-05-24T00:14:50.299Z,506.00
2023-05-24T00:15:50.292Z,506.00
2023-05-24T00:16:50.314Z,508.00
2023-05-24T00:17:50.301Z,505.00
2023-05-24T00:18:50.276Z,507.00
2023-05-24T00:19:50.260Z,506.00
2023-05-24T00:20:50.280Z,505.00
2023-05-24T00:21:50.232Z,508.00
2023-05-24T00:22:50.262Z,507.00
2023-05-24T00:23:50.246Z,509.00
2023-05-24T00:24:50.272Z,511.00
2023-05-24T00:25:50.348Z,505.00
2023-05-24T00:26:50.210Z,504.00
2023-05-24T00:27:50.231Z,507.00
2023-05-24T00:28:50.212Z,501.00
2023-05-24T00:29:50.190Z,504.00
2023-05-24T00:30:50.209Z,508.00
2023-05-24T00:31:50.169Z,506.00
2023-05-24T00:32:50.210Z,505.00
2023-05-24T00:33:50.176Z,502.00
2023-05-24T00:34:50.147Z,508.00
2023-05-24T00:35:50.185Z,500.00
2023-05-24T00:36:50.162Z,505.00
2023-05-24T00:37:50.144Z,503.00
2023-05-24T00:38:50.116Z,508.00
2023-05-24T00:39:50.134Z,501.00
2023-05-24T00:40:50.176Z,504.00
2023-05-24T00:41:50.101Z,500.00
2023-05-24T00:42:50.117Z,505.00
2023-05-24T00:43:50.120Z,502.00
2023-05-24T00:44:50.116Z,502.00
2023-05-24T00:45:50.130Z,507.00
2023-05-24T00:46:50.054Z,502.00
2023-05-24T00:47:50.105Z,505.00
2023-05-24T00:48:50.068Z,506.00
2023-05-24T00:49:50.057Z,504.00
2023-05-24T00:50:50.056Z,502.00
2023-05-24T00:51:50.043Z,503.00
2023-05-24T00:52:50.046Z,506.00
2023-05-24T00:53:50.024Z,506.00
2023-05-24T00:54:50.033Z,508.00
2023-05-24T00:55:50.025Z,509.00
2023-05-24T00:56:50.002Z,507.00
2023-05-24T00:57:50.022Z,510.00
2023-05-24T00:58:49.978Z,509.00
2023-05-24T00:59:49.988Z,508.00
2023-05-24T01:00:49.952Z,502.00
2023-05-24T01:01:50.043Z,505.00
2023-05-24T01:02:49.987Z,502.00
2023-05-24T01:03:50.073Z,507.00
2023-05-24T01:04:49.950Z,507.00
2023-05-24T01:05:49.973Z,507.00
2023-05-24T01:06:49.939Z,508.00
2023-05-24T01:07:49.959Z,504.00
2023-05-24T01:08:49.902Z,505.00
2023-05-24T01:09:49.910Z,504.00
2023-05-24T01:10:49.918Z,512.00
2023-05-24T01:11:49.863Z,505.00
2023-05-24T01:12:49.881Z,506.00
2023-05-24T01:13:49.887Z,507.00
2023-05-24T01:14:49.850Z,504.00
2023-05-24T01:15:49.895Z,502.00
2023-05-24T01:16:49.864Z,504.00
2023-05-24T01:17:49.916Z,502.00
2023-05-24T01:18:49.847Z,503.00
2023-05-24T01:19:50.030Z,503.00
2023-05-24T01:20:49.916Z,503.00
2023-05-24T01:21:49.841Z,503.00
2023-05-24T01:22:49.831Z,508.00
2023-05-24T01:23:49.837Z,506.00
2023-05-24T01:24:49.793Z,509.00
2023-05-24T01:25:49.883Z,505.00
2023-05-24T01:26:49.771Z,506.00
2023-05-24T01:27:49.799Z,508.00
2023-05-24T01:28:49.757Z,504.00
2023-05-24T01:29:49.739Z,506.00
2023-05-24T01:30:49.819Z,508.00
2023-05-24T01:31:49.794Z,500.00
2023-05-24T01:32:49.742Z,507.00
2023-05-24T01:33:49.723Z,506.00
2023-05-24T01:34:49.730Z,501.00
2023-05-24T01:35:49.761Z,504.00
2023-05-24T01:36:49.721Z,500.00
2023-05-24T01:37:49.706Z,505.00
2023-05-24T01:38:49.706Z,508.00
2023-05-24T01:39:49.686Z,503.00
2023-05-24T01:40:49.783Z,508.00
2023-05-24T01:41:49.679Z,506.00
2023-05-24T01:42:49.679Z,506.00
2023-05-24T01:43:49.682Z,507.00
2023-05-24T01:44:49.684Z,506.00
2023-05-24T01:45:49.688Z,502.00
2023-05-24T01:46:49.682Z,508.00
2023-05-24T01:47:49.674Z,504.00
2023-05-24T01:48:49.642Z,512.00
2023-05-24T01:49:49.648Z,505.00
2023-05-24T01:50:49.635Z,508.00
2023-05-24T01:51:49.683Z,504.00
2023-05-24T01:52:49.598Z,507.00
2023-05-24T01:53:49.569Z,507.00
2023-05-24T01:54:49.582Z,511.00
2023-05-24T01:55:49.597Z,507.00
2023-05-24T01:56:49.571Z,507.00
2023-05-24T01:57:49.577Z,505.00
2023-05-24T01:58:49.550Z,504.00
2023-05-24T01:59:49.540Z,506.00
2023-05-24T02:00:49.581Z,505.00
2023-05-24T02:01:49.570Z,505.00
2023-05-24T02:02:49.670Z,501.00
2023-05-24T02:03:49.524Z,504.00
2023-05-24T02:04:49.556Z,502.00
2023-05-24T02:05:49.488Z,510.00
2023-05-24T02:06:49.498Z,506.00
2023-05-24T02:07:49.522Z,507.00
2023-05-24T02:08:49.506Z,504.00
2023-05-24T02:09:49.492Z,508.00
2023-05-24T02:10:49.499Z,502.00
2023-05-24T02:11:49.502Z,505.00
2023-05-24T02:12:49.494Z,505.00
2023-05-24T02:13:49.453Z,502.00
2023-05-24T02:14:49.498Z,502.00
2023-05-24T02:15:49.493Z,506.00
2023-05-24T02:16:49.557Z,504.00
2023-05-24T02:17:49.556Z,504.00
2023-05-24T02:18:49.542Z,503.00
2023-05-24T02:19:49.618Z,504.00
2023-05-24T02:20:49.613Z,502.00
2023-05-24T02:21:49.621Z,506.00
2023-05-24T02:22:49.634Z,505.00
2023-05-24T02:23:49.683Z,507.00
2023-05-24T02:24:49.659Z,504.00
2023-05-24T02:25:49.693Z,502.00
2023-05-24T02:26:49.702Z,505.00
2023-05-24T02:27:49.721Z,500.00
2023-05-24T02:28:49.724Z,503.00
2023-05-24T02:29:49.756Z,507.00
2023-05-24T02:30:49.811Z,503.00
2023-05-24T02:31:49.789Z,504.00
2023-05-24T02:32:49.882Z,508.00
2023-05-24T02:33:49.835Z,502.00
2023-05-24T02:34:49.861Z,505.00
2023-05-24T02:35:49.861Z,502.00
2023-05-24T02:36:49.915Z,503.00
2023-05-24T02:37:49.926Z,503.00
2023-05-24T02:38:49.951Z,505.00
2023-05-24T02:39:49.983Z,506.00
2023-05-24T02:40:49.995Z,505.00
2023-05-24T02:41:50.040Z,500.00
2023-05-24T02:42:50.041Z,505.00
2023-05-24T02:43:50.062Z,506.00
2023-05-24T02:44:50.055Z,503.00
2023-05-24T02:45:50.204Z,503.00
2023-05-24T02:46:50.095Z,501.00
2023-05-24T02:47:50.172Z,502.00
2023-05-24T02:48:50.162Z,508.00
2023-05-24T02:49:50.185Z,503.00
2023-05-24T02:50:50.178Z,505.00
2023-05-24T02:51:50.189Z,504.00
2023-05-24T02:52:50.269Z,505.00
2023-05-24T02:53:50.237Z,504.00
2023-05-24T02:54:50.289Z,504.00
2023-05-24T02:55:50.312Z,503.00
2023-05-24T02:56:50.288Z,503.00
2023-05-24T02:57:50.300Z,509.00
2023-05-24T02:58:50.343Z,506.00
2023-05-24T02:59:50.352Z,505.00
2023-05-24T03:00:50.410Z,510.00
2023-05-24T03:01:50.431Z,502.00
2023-05-24T03:02:50.546Z,505.00
2023-05-24T03:03:50.545Z,508.00
2023-05-24T03:04:50.482Z,508.00
2023-05-24T03:05:50.494Z,510.00
2023-05-24T03:06:50.516Z,509.00
2023-05-24T03:07:50.548Z,513.00
2023-05-24T03:08:50.583Z,505.00
2023-05-24T03:09:50.621Z,509.00
2023-05-24T03:10:50.622Z,500.00
2023-05-24T03:11:50.670Z,507.00
2023-05-24T03:12:50.671Z,505.00
2023-05-24T03:13:50.699Z,510.00
2023-05-24T03:14:50.725Z,512.00
2023-05-24T03:15:50.825Z,508.00
2023-05-24T03:16:50.795Z,503.00
2023-05-24T03:17:50.848Z,507.00
2023-05-24T03:18:50.878Z,508.00
2023-05-24T03:19:50.886Z,505.00
2023-05-24T03:20:50.899Z,504.00
2023-05-24T03:21:50.933Z,503.00
2023-05-24T03:22:50.914Z,507.00
2023-05-24T03:23:50.973Z,503.00
2023-05-24T03:24:50.965Z,507.00
2023-05-24T03:25:51.034Z,508.00
2023-05-24T03:26:51.045Z,509.00
2023-05-24T03:27:51.053Z,510.00
2023-05-24T03:28:51.074Z,502.00
2023-05-24T03:29:51.124Z,502.00
2023-05-24T03:30:51.162Z,509.00
2023-05-24T03:31:51.145Z,501.00
2023-05-24T03:32:51.231Z,503.00
2023-05-24T03:33:51.196Z,508.00
2023-05-24T03:34:51.250Z,506.00
2023-05-24T03:35:51.250Z,503.00
2023-05-24T03:36:51.290Z,503.00
2023-05-24T03:37:51.331Z,505.00
2023-05-24T03:38:51.361Z,501.00
2023-05-24T03:39:51.369Z,506.00
2023-05-24T03:40:51.397Z,505.00
2023-05-24T03:41:51.437Z,501.00
2023-05-24T03:42:51.434Z,506.00
2023-05-24T03:43:51.464Z,504.00
2023-05-24T03:44:51.485Z,507.00
2023-05-24T03:45:51.565Z,504.00
2023-05-24T03:46:51.539Z,505.00
2023-05-24T03:47:51.611Z,510.00
2023-05-24T03:48:51.592Z,503.00
2023-05-24T03:49:51.594Z,502.00
2023-05-24T03:50:51.631Z,503.00
2023-05-24T03:51:51.684Z,503.00
2023-05-24T03:52:51.680Z,502.00
2023-05-24T03:53:51.719Z,505.00
2023-05-24T03:54:51.754Z,505.00
2023-05-24T03:55:51.767Z,508.00
2023-05-24T03:56:51.759Z,508.00
2023-05-24T03:57:51.831Z,503.00
2023-05-24T03:58:51.827Z,505.00
2023-05-24T03:59:51.860Z,504.00
2023-05-24T04:00:51.907Z,509.00
2023-05-24T04:01:51.976Z,507.00
2023-05-24T04:02:52.070Z,500.00
2023-05-24T04:03:52.040Z,508.00
2023-05-24T04:04:51.994Z,501.00
2023-05-24T04:05:52.045Z,507.00
2023-05-24T04:06:52.079Z,503.00
2023-05-24T04:07:52.088Z,501.00
2023-05-24T04:08:52.126Z,504.00
2023-05-24T04:09:52.159Z,501.00
2023-05-24T04:10:52.163Z,507.00
2023-05-24T04:11:52.175Z,508.00
2023-05-24T04:12:52.218Z,504.00
2023-05-24T04:13:52.236Z,502.00
2023-05-24T04:14:52.313Z,503.00
2023-05-24T04:15:52.353Z,505.00
2023-05-24T04:16:52.398Z,502.00
2023-05-24T04:17:52.439Z,501.00
2023-05-24T04:18:52.591Z,503.00
2023-05-24T04:19:52.437Z,506.00
2023-05-24T04:20:52.494Z,505.00
2023-05-24T04:21:52.496Z,500.00
2023-05-24T04:22:52.525Z,504.00
2023-05-24T04:23:52.602Z,508.00
2023-05-24T04:24:52.758Z,505.00
2023-05-24T04:25:52.609Z,504.00
2023-05-24T04:26:52.624Z,506.00
2023-05-24T04:27:52.673Z,503.00
2023-05-24T04:28:52.697Z,506.00
2023-05-24T04:29:52.734Z,504.00
2023-05-24T04:30:52.773Z,502.00
2023-05-24T04:31:52.802Z,504.00
2023-05-24T04:32:52.898Z,505.00
2023-05-24T04:33:52.865Z,503.00
2023-05-24T04:34:52.870Z,509.00
2023-05-24T04:35:52.935Z,507.00
2023-05-24T04:36:52.947Z,510.00
2023-05-24T04:37:52.969Z,505.00
2023-05-24T04:38:52.999Z,509.00
2023-05-24T04:39:53.036Z,500.00
2023-05-24T04:40:53.031Z,501.00
2023-05-24T04:41:53.081Z,505.00
2023-05-24T04:42:53.127Z,505.00
2023-05-24T04:43:53.129Z,503.00
2023-05-24T04:44:53.184Z,500.00
2023-05-24T04:45:53.214Z,507.00
2023-05-24T04:46:53.254Z,504.00
2023-05-24T04:47:53.281Z,503.00
2023-05-24T04:48:53.256Z,505.00
2023-05-24T04:49:53.301Z,508.00
2023-05-24T04:50:53.345Z,507.00
2023-05-24T04:51:55.119Z,502.00
2023-05-24T04:52:53.411Z,505.00
2023-05-24T04:53:53.432Z,508.00
2023-05-24T04:54:53.447Z,500.00
2023-05-24T04:55:53.502Z,501.00
2023-05-24T04:56:53.514Z,504.00
2023-05-24T04:57:53.549Z,505.00
2023-05-24T04:58:53.580Z,500.00
2023-05-24T04:59:53.618Z,505.00
2023-05-24T05:00:53.637Z,500.00
2023-05-24T05:01:53.689Z,506.00
2023-05-24T05:02:53.747Z,500.00
2023-05-24T05:03:53.703Z,502.00
2023-05-24T05:04:53.713Z,505.00
2023-05-24T05:05:53.769Z,508.00
2023-05-24T05:06:53.762Z,505.00
2023-05-24T05:07:53.818Z,502.00
2023-05-24T05:08:53.879Z,502.00
2023-05-24T05:09:53.864Z,508.00
2023-05-24T05:10:53.879Z,506.00
2023-05-24T05:11:53.890Z,508.00
2023-05-24T05:12:53.947Z,503.00
2023-05-24T05:13:53.999Z,506.00
2023-05-24T05:14:53.984Z,507.00
2023-05-24T05:15:54.020Z,503.00
2023-05-24T05:16:54.207Z,503.00
2023-05-24T05:17:54.149Z,506.00
2023-05-24T05:18:54.121Z,507.00
2023-05-24T05:19:54.176Z,507.00
2023-05-24T05:20:54.192Z,508.00
2023-05-24T05:21:54.214Z,506.00
2023-05-24T05:22:54.263Z,503.00
2023-05-24T05:23:54.270Z,505.00
2023-05-24T05:24:54.272Z,504.00
2023-05-24T05:25:54.307Z,509.00
2023-05-24T05:26:54.363Z,505.00
2023-05-24T05:27:54.396Z,509.00
2023-05-24T05:28:54.390Z,506.00
2023-05-24T05:29:54.416Z,506.00
2023-05-24T05:30:54.438Z,512.00
2023-05-24T05:31:54.517Z,503.00
2023-05-24T05:32:54.619Z,505.00
2023-05-24T05:33:54.535Z,504.00
2023-05-24T05:34:54.547Z,506.00
2023-05-24T05:35:55.080Z,506.00
2023-05-24T05:36:54.617Z,504.00
2023-05-24T05:37:54.664Z,503.00
2023-05-24T05:38:54.753Z,506.00
2023-05-24T05:39:54.740Z,508.00
2023-05-24T05:40:54.794Z,506.00
2023-05-24T05:41:54.758Z,505.00
2023-05-24T05:42:54.809Z,510.00
2023-05-24T05:43:54.849Z,510.00
2023-05-24T05:44:54.893Z,508.00
2023-05-24T05:45:54.917Z,505.00
2023-05-24T05:46:54.953Z,504.00
2023-05-24T05:47:54.965Z,504.00
2023-05-24T05:48:55.018Z,506.00
2023-05-24T05:49:55.028Z,509.00
2023-05-24T05:50:55.077Z,512.00
2023-05-24T05:51:55.100Z,514.00
2023-05-24T05:52:55.137Z,510.00
2023-05-24T05:53:55.160Z,512.00
2023-05-24T05:54:55.231Z,516.00
2023-05-24T05:55:55.253Z,521.00
2023-05-24T05:56:55.223Z,521.00
2023-05-24T05:57:55.245Z,517.00
2023-05-24T05:58:55.292Z,514.00
2023-05-24T05:59:55.352Z,504.00
2023-05-24T06:00:55.459Z,525.00
2023-05-24T06:01:55.393Z,537.00
2023-05-24T06:02:55.511Z,572.00
2023-05-24T06:03:55.611Z,574.00
2023-05-24T06:04:55.632Z,569.00
2023-05-24T06:05:55.511Z,581.00
2023-05-24T06:06:55.516Z,591.00
2023-05-24T06:07:55.529Z,595.00
2023-05-24T06:08:55.531Z,605.00
2023-05-24T06:09:55.565Z,616.00
2023-05-24T06:10:55.720Z,621.00
2023-05-24T06:11:55.703Z,637.00
2023-05-24T06:12:55.744Z,651.00
2023-05-24T06:13:55.814Z,660.00
2023-05-24T06:14:55.851Z,685.00
2023-05-24T06:15:55.922Z,692.00
2023-05-24T06:16:57.813Z,719.00
2023-05-24T06:17:55.928Z,733.00
2023-05-24T06:19:05.470Z,750.00
2023-05-24T06:19:56.898Z,754.00
2023-05-24T06:20:55.869Z,761.00
2023-05-24T06:21:55.856Z,768.00
2023-05-24T06:22:55.869Z,802.00
2023-05-24T06:23:55.894Z,823.00
2023-05-24T06:24:56.532Z,848.00
2023-05-24T06:25:55.880Z,871.00
2023-05-24T06:26:55.853Z,876.00
2023-05-24T06:27:55.827Z,883.00
2023-05-24T06:28:55.802Z,868.00
2023-05-24T06:29:55.839Z,884.00
2023-05-24T06:30:55.842Z,895.00
2023-05-24T06:31:55.861Z,854.00
2023-05-24T06:32:55.837Z,805.00
2023-05-24T06:34:03.868Z,851.00
2023-05-24T06:34:56.794Z,853.00
2023-05-24T06:35:55.782Z,855.00
2023-05-24T06:36:55.765Z,848.00
2023-05-24T06:37:55.726Z,796.00
2023-05-24T06:38:55.760Z,786.00
2023-05-24T06:39:55.752Z,767.00
2023-05-24T06:40:55.733Z,761.00
2023-05-24T06:41:55.763Z,795.00
2023-05-24T06:42:55.701Z,752.00
2023-05-24T06:43:55.728Z,744.00
2023-05-24T06:44:55.684Z,746.00
2023-05-24T06:45:55.718Z,742.00
2023-05-24T06:46:55.782Z,733.00
2023-05-24T06:47:55.734Z,749.00
2023-05-24T06:48:55.825Z,712.00
2023-05-24T06:49:55.637Z,716.00
2023-05-24T06:50:55.646Z,711.00
2023-05-24T06:51:55.664Z,702.00
2023-05-24T06:52:55.645Z,643.00
2023-05-24T06:53:55.627Z,630.00
2023-05-24T06:54:55.656Z,650.00
2023-05-24T06:55:57.609Z,626.00
2023-05-24T06:56:55.702Z,636.00
2023-05-24T06:57:55.706Z,599.00
2023-05-24T06:58:55.726Z,593.00
2023-05-24T06:59:55.760Z,561.00
2023-05-24T07:00:55.817Z,557.00
2023-05-24T07:01:55.800Z,563.00
2023-05-24T07:02:55.894Z,566.00
2023-05-24T07:03:55.867Z,558.00
2023-05-24T07:04:56.114Z,564.00
2023-05-24T07:05:55.973Z,554.00
2023-05-24T07:06:56.043Z,550.00
2023-05-24T07:07:56.077Z,561.00
2023-05-24T07:08:56.139Z,546.00
2023-05-24T07:09:56.208Z,554.00
2023-05-24T07:10:56.275Z,557.00
2023-05-24T07:11:56.346Z,549.00
2023-05-24T07:12:56.370Z,550.00
2023-05-24T07:13:56.451Z,548.00
2023-05-24T07:14:56.512Z,549.00
2023-05-24T07:15:56.596Z,550.00
2023-05-24T07:16:56.674Z,559.00
2023-05-24T07:17:56.801Z,567.00
2023-05-24T07:18:56.758Z,578.00
2023-05-24T07:19:56.898Z,585.00
2023-05-24T07:20:56.912Z,584.00
2023-05-24T07:21:56.946Z,595.00
2023-05-24T07:22:56.992Z,593.00
2023-05-24T07:23:57.017Z,599.00
2023-05-24T07:24:57.084Z,603.00
2023-05-24T07:25:57.109Z,598.00
2023-05-24T07:26:57.126Z,602.00
2023-05-24T07:27:57.166Z,605.00
2023-05-24T07:28:57.211Z,603.00
2023-05-24T07:29:57.240Z,592.00
2023-05-24T07:30:57.285Z,599.00
2023-05-24T07:31:57.334Z,600.00
2023-05-24T07:32:57.356Z,604.00
2023-05-24T07:33:57.352Z,605.00
2023-05-24T07:34:57.360Z,606.00
2023-05-24T07:35:57.431Z,599.00
2023-05-24T07:36:57.456Z,601.00
2023-05-24T07:37:57.497Z,600.00
2023-05-24T07:38:57.510Z,604.00
2023-05-24T07:39:57.543Z,606.00
2023-05-24T07:40:57.595Z,608.00
2023-05-24T07:41:57.567Z,607.00
2023-05-24T07:42:57.625Z,605.00
2023-05-24T07:43:57.612Z,607.00
2023-05-24T07:44:57.631Z,608.00
2023-05-24T07:45:57.717Z,605.00
2023-05-24T07:46:57.736Z,544.00
2023-05-24T07:47:57.828Z,504.00
2023-05-24T07:48:57.771Z,505.00
2023-05-24T07:49:57.831Z,504.00
2023-05-24T07:50:57.941Z,514.00
2023-05-24T07:51:57.914Z,522.00
2023-05-24T07:52:58.217Z,551.00
2023-05-24T07:53:58.008Z,567.00
2023-05-24T07:54:58.087Z,583.00
2023-05-24T07:55:58.086Z,594.00
2023-05-24T07:56:58.136Z,608.00
2023-05-24T07:57:58.116Z,577.00
2023-05-24T07:58:58.142Z,572.00
2023-05-24T07:59:58.167Z,564.00
2023-05-24T08:00:58.165Z,550.00
2023-05-24T08:01:58.194Z,549.00
2023-05-24T08:02:58.298Z,522.00
2023-05-24T08:03:58.406Z,547.00
2023-05-24T08:04:58.308Z,536.00
2023-05-24T08:05:58.381Z,512.00
2023-05-24T08:06:58.508Z,515.00
2023-05-24T08:07:58.453Z,503.00
2023-05-24T08:08:58.533Z,519.00
2023-05-24T08:09:58.560Z,512.00
2023-05-24T08:10:58.595Z,520.00
2023-05-24T08:11:58.560Z,527.00
2023-05-24T08:12:58.570Z,518.00
2023-05-24T08:13:58.582Z,546.00
2023-05-24T08:14:58.645Z,559.00
2023-05-24T08:15:58.726Z,575.00
2023-05-24T08:16:58.739Z,587.00
2023-05-24T08:17:58.823Z,594.00
2023-05-24T08:18:58.768Z,599.00
2023-05-24T08:19:58.820Z,603.00
2023-05-24T08:20:58.788Z,608.00
2023-05-24T08:21:58.855Z,618.00
2023-05-24T08:22:58.894Z,625.00
2023-05-24T08:23:58.974Z,628.00
2023-05-24T08:24:59.014Z,641.00
2023-05-24T08:25:59.049Z,641.00
2023-05-24T08:26:59.103Z,649.00
2023-05-24T08:27:59.147Z,657.00
2023-05-24T08:28:59.177Z,654.00
2023-05-24T08:29:59.206Z,657.00
2023-05-24T08:30:59.208Z,670.00
2023-05-24T08:31:59.277Z,701.00
2023-05-24T08:32:59.292Z,698.00
2023-05-24T08:33:59.239Z,709.00
2023-05-24T08:35:11.109Z,717.00
2023-05-24T08:36:00.284Z,718.00
2023-05-24T08:36:59.267Z,719.00
2023-05-24T08:37:59.253Z,721.00
2023-05-24T08:38:59.245Z,726.00
2023-05-24T08:39:59.208Z,745.00
2023-05-24T08:40:59.201Z,749.00
2023-05-24T08:42:59.267Z,773.00
2023-05-24T08:43:59.207Z,772.00
2023-05-24T08:44:59.210Z,768.00
2023-05-24T08:45:59.235Z,773.00
2023-05-24T08:46:59.227Z,776.00
2023-05-24T08:47:59.337Z,808.00
2023-05-24T08:48:59.227Z,833.00
2023-05-24T08:49:59.187Z,841.00
2023-05-24T08:50:59.208Z,839.00
2023-05-24T08:51:59.181Z,837.00
2023-05-24T08:52:59.132Z,819.00
2023-05-24T08:53:59.152Z,787.00
2023-05-24T08:54:59.173Z,771.00
2023-05-24T08:55:59.125Z,745.00
2023-05-24T08:56:59.148Z,740.00
2023-05-24T08:57:59.106Z,730.00
2023-05-24T08:58:59.111Z,727.00
2023-05-24T08:59:59.089Z,720.00
2023-05-24T09:00:59.133Z,714.00
2023-05-24T09:01:59.148Z,717.00
2023-05-24T09:02:59.141Z,734.00
2023-05-24T09:03:59.149Z,743.00
2023-05-24T09:04:59.062Z,737.00
2023-05-24T09:05:59.071Z,730.00
2023-05-24T09:06:59.071Z,720.00
2023-05-24T09:07:59.024Z,718.00
2023-05-24T09:08:59.036Z,711.00
2023-05-24T09:09:59.030Z,706.00
2023-05-24T09:10:59.189Z,701.00
2023-05-24T09:11:59.000Z,706.00
2023-05-24T09:12:59.034Z,703.00
2023-05-24T09:13:58.985Z,691.00
2023-05-24T09:14:58.974Z,696.00
2023-05-24T09:15:59.065Z,685.00
2023-05-24T09:16:58.963Z,688.00
2023-05-24T09:17:59.051Z,687.00
2023-05-24T09:18:58.965Z,691.00
2023-05-24T09:19:59.066Z,682.00
2023-05-24T09:20:59.011Z,674.00
2023-05-24T09:21:59.146Z,689.00
2023-05-24T09:22:58.940Z,690.00
2023-05-24T09:23:58.939Z,674.00
2023-05-24T09:24:58.902Z,666.00
2023-05-24T09:25:58.903Z,665.00
2023-05-24T09:26:58.897Z,677.00
2023-05-24T09:27:58.906Z,675.00
2023-05-24T09:28:58.891Z,679.00
2023-05-24T09:29:58.857Z,668.00
2023-05-24T09:30:58.924Z,664.00
2023-05-24T09:31:59.026Z,663.00
2023-05-24T09:32:58.900Z,659.00
2023-05-24T09:33:58.842Z,664.00
2023-05-24T09:34:58.827Z,657.00
2023-05-24T09:35:58.792Z,659.00
2023-05-24T09:36:58.824Z,668.00
2023-05-24T09:37:58.826Z,656.00
2023-05-24T09:38:58.778Z,662.00
2023-05-24T09:39:58.802Z,660.00
2023-05-24T09:40:58.787Z,662.00
2023-05-24T09:41:58.772Z,657.00
2023-05-24T09:42:58.776Z,653.00
2023-05-24T09:43:58.765Z,660.00
2023-05-24T09:44:58.742Z,656.00
2023-05-24T09:45:58.750Z,652.00
2023-05-24T09:46:58.797Z,656.00
2023-05-24T09:47:58.805Z,654.00
2023-05-24T09:48:58.761Z,653.00
2023-05-24T09:49:58.748Z,652.00
2023-05-24T09:50:58.774Z,652.00
2023-05-24T09:51:59.188Z,646.00
2023-05-24T09:52:58.675Z,653.00
2023-05-24T09:53:58.698Z,653.00
2023-05-24T09:54:58.670Z,650.00
2023-05-24T09:55:59.671Z,650.00
2023-05-24T09:56:58.637Z,650.00
2023-05-24T09:57:58.643Z,647.00
2023-05-24T09:58:58.644Z,651.00
2023-05-24T09:59:58.642Z,653.00
2023-05-24T10:00:58.856Z,643.00
2023-05-24T10:01:58.670Z,649.00
2023-05-24T10:02:58.649Z,650.00
2023-05-24T10:03:58.721Z,644.00
2023-05-24T10:04:58.722Z,647.00
2023-05-24T10:05:58.607Z,643.00
2023-05-24T10:06:58.657Z,641.00
2023-05-24T10:07:58.754Z,641.00
2023-05-24T10:08:58.766Z,639.00
2023-05-24T10:09:58.818Z,638.00
2023-05-24T10:10:58.867Z,643.00
2023-05-24T10:11:58.929Z,641.00
2023-05-24T10:12:58.915Z,634.00
2023-05-24T10:13:58.984Z,636.00
2023-05-24T10:14:59.052Z,633.00
2023-05-24T10:15:59.076Z,637.00
2023-05-24T10:16:59.279Z,633.00
2023-05-24T10:17:59.223Z,636.00
2023-05-24T10:18:59.235Z,639.00
2023-05-24T10:19:59.347Z,629.00
2023-05-24T10:20:59.443Z,635.00
2023-05-24T10:21:59.369Z,633.00
2023-05-24T10:22:59.467Z,637.00
2023-05-24T10:23:59.491Z,629.00
2023-05-24T10:24:59.524Z,627.00
2023-05-24T10:25:59.618Z,630.00
2023-05-24T10:26:59.669Z,630.00
2023-05-24T10:27:59.755Z,630.00
2023-05-24T10:28:59.760Z,629.00
2023-05-24T10:29:59.841Z,630.00
2023-05-24T10:30:59.950Z,625.00
2023-05-24T10:31:59.946Z,624.00
2023-05-24T10:33:00.164Z,626.00
2023-05-24T10:34:07.276Z,631.00
2023-05-24T10:35:01.104Z,632.00
2023-05-24T10:36:00.040Z,631.00
2023-05-24T10:37:00.041Z,630.00
2023-05-24T10:38:00.064Z,627.00
2023-05-24T10:39:00.022Z,629.00
2023-05-24T10:40:00.080Z,628.00
2023-05-24T10:41:00.035Z,627.00
2023-05-24T10:42:00.647Z,621.00
2023-05-24T10:43:00.088Z,617.00
2023-05-24T10:44:08.652Z,622.00
2023-05-24T10:45:01.164Z,623.00
2023-05-24T10:46:00.352Z,623.00
2023-05-24T10:47:00.183Z,623.00
2023-05-24T10:48:00.206Z,619.00
2023-05-24T10:49:00.177Z,624.00
2023-05-24T10:50:00.256Z,621.00
2023-05-24T10:51:00.138Z,625.00
2023-05-24T10:52:00.135Z,615.00
2023-05-24T10:53:00.200Z,615.00
2023-05-24T10:54:00.264Z,619.00
2023-05-24T10:55:04.301Z,620.00
2023-05-24T10:56:00.398Z,620.00
2023-05-24T10:57:00.335Z,618.00
2023-05-24T10:58:00.327Z,614.00
2023-05-24T10:59:00.367Z,617.00
2023-05-24T11:00:00.281Z,612.00
2023-05-24T11:01:00.314Z,608.00
2023-05-24T11:02:00.780Z,603.00
2023-05-24T11:03:00.324Z,603.00
2023-05-24T11:04:00.285Z,614.00
2023-05-24T11:05:00.346Z,604.00
2023-05-24T11:06:00.494Z,608.00
2023-05-24T11:07:00.352Z,607.00
2023-05-24T11:08:00.456Z,603.00
2023-05-24T11:09:00.544Z,604.00
2023-05-24T11:10:00.592Z,604.00
2023-05-24T11:11:11.522Z,607.00
2023-05-24T11:12:01.629Z,607.00
2023-05-24T11:13:00.637Z,608.00
2023-05-24T11:14:00.645Z,608.00
2023-05-24T11:15:00.626Z,609.00
2023-05-24T11:16:00.664Z,612.00
2023-05-24T11:17:00.592Z,610.00
2023-05-24T11:18:00.715Z,609.00
2023-05-24T11:19:00.637Z,608.00
2023-05-24T11:20:00.727Z,614.00
2023-05-24T11:21:00.764Z,612.00
2023-05-24T11:22:00.830Z,613.00
2023-05-24T11:23:00.876Z,611.00
2023-05-24T11:24:00.983Z,613.00
2023-05-24T11:25:00.991Z,608.00
2023-05-24T11:26:01.069Z,609.00
2023-05-24T11:27:01.148Z,613.00
2023-05-24T11:28:01.213Z,614.00
2023-05-24T11:29:04.167Z,610.00
2023-05-24T11:30:01.283Z,619.00
2023-05-24T11:31:01.231Z,617.00
2023-05-24T11:32:01.361Z,615.00
2023-05-24T11:33:01.270Z,612.00
2023-05-24T11:34:01.233Z,612.00
2023-05-24T11:35:01.199Z,611.00
2023-05-24T11:36:01.251Z,612.00
2023-05-24T11:37:01.246Z,613.00
2023-05-24T11:38:01.205Z,613.00
2023-05-24T11:39:01.180Z,608.00
2023-05-24T11:40:01.205Z,608.00
2023-05-24T11:41:01.198Z,611.00
2023-05-24T11:42:01.201Z,609.00
2023-05-24T11:43:01.225Z,604.00
2023-05-24T11:44:01.127Z,611.00
2023-05-24T11:45:01.133Z,612.00
2023-05-24T11:46:01.133Z,607.00
2023-05-24T11:47:01.162Z,609.00
2023-05-24T11:48:01.189Z,610.00
2023-05-24T11:49:01.152Z,611.00
2023-05-24T11:50:01.119Z,608.00
2023-05-24T11:51:01.118Z,612.00
2023-05-24T11:52:01.115Z,615.00
2023-05-24T11:53:01.155Z,609.00
2023-05-24T11:54:01.180Z,608.00
2023-05-24T11:55:01.221Z,605.00
2023-05-24T11:56:01.309Z,598.00
2023-05-24T11:57:01.368Z,593.00
2023-05-24T11:58:01.409Z,592.00
2023-05-24T11:59:01.477Z,586.00
2023-05-24T12:00:01.566Z,584.00
2023-05-24T12:01:01.617Z,582.00
2023-05-24T12:02:01.964Z,578.00
2023-05-24T12:03:01.866Z,576.00
2023-05-24T12:04:01.856Z,580.00
2023-05-24T12:05:01.995Z,576.00
2023-05-24T12:06:01.946Z,585.00
2023-05-24T12:07:01.958Z,584.00
2023-05-24T12:08:02.019Z,585.00
2023-05-24T12:09:02.097Z,586.00
2023-05-24T12:10:02.184Z,587.00
2023-05-24T12:11:02.223Z,588.00
2023-05-24T12:12:02.266Z,593.00
2023-05-24T12:13:02.306Z,592.00
2023-05-24T12:14:02.351Z,592.00
2023-05-24T12:15:02.462Z,589.00
2023-05-24T12:16:02.554Z,585.00
2023-05-24T12:17:02.528Z,589.00
2023-05-24T12:18:02.601Z,582.00
2023-05-24T12:19:07.396Z,592.00
2023-05-24T12:20:03.657Z,592.00
2023-05-24T12:21:02.584Z,592.00
2023-05-24T12:22:02.597Z,588.00
2023-05-24T12:23:02.596Z,592.00
2023-05-24T12:24:02.598Z,594.00
2023-05-24T12:25:02.662Z,591.00
2023-05-24T12:26:02.573Z,591.00
2023-05-24T12:27:02.584Z,590.00
2023-05-24T12:28:02.577Z,590.00
2023-05-24T12:29:02.676Z,593.00
2023-05-24T12:30:02.668Z,592.00